createdAt,value
2018-03-19T00:00:40.797Z,97823
2018-03-19T00:03:08.367Z,97812
2018-03-19T00:05:35.936Z,97824
2018-03-19T00:08:03.502Z,97825
2018-03-19T00:10:31.171Z,97822
2018-03-19T00:12:59.505Z,97824
2018-03-19T00:15:27.105Z,97823
2018-03-19T00:17:54.779Z,97820
2018-03-19T00:20:23.168Z,97818
2018-03-19T00:22:50.821Z,97810
2018-03-19T00:25:19.159Z,97813
2018-03-19T00:27:46.906Z,97794
2018-03-19T00:30:14.481Z,97802
2018-03-19T00:32:42.085Z,97802
2018-03-19T00:35:10.457Z,97805
2018-03-19T00:37:38.800Z,97806
2018-03-19T00:40:06.379Z,97810
2018-03-19T00:42:33.990Z,97805
2018-03-19T00:45:01.577Z,97797
2018-03-19T00:47:29.157Z,97802
2018-03-19T00:49:56.757Z,97801
2018-03-19T00:52:25.124Z,97801
2018-03-19T00:54:52.790Z,97804
2018-03-19T00:57:21.129Z,97805
2018-03-19T00:59:48.751Z,97802
2018-03-19T01:02:16.357Z,97799
2018-03-19T01:04:43.928Z,97790
2018-03-19T01:07:11.514Z,97805
2018-03-19T01:09:39.855Z,97798
2018-03-19T01:12:07.449Z,97799
2018-03-19T01:14:35.114Z,97804
2018-03-19T01:17:02.775Z,97798
2018-03-19T01:19:30.443Z,97805
2018-03-19T01:21:58.776Z,97798
2018-03-19T01:24:26.344Z,97800
2018-03-19T01:26:54.046Z,97793
2018-03-19T01:29:22.532Z,97794
2018-03-19T01:31:50.950Z,97792
2018-03-19T01:34:19.253Z,97803
2018-03-19T01:36:47.042Z,97794
2018-03-19T01:39:14.719Z,97793
2018-03-19T01:41:43.097Z,97786
2018-03-19T01:44:11.440Z,97797
2018-03-19T01:46:39.135Z,97787
2018-03-19T01:49:06.709Z,97786
2018-03-19T01:51:35.181Z,97790
2018-03-19T01:54:03.539Z,97796
2018-03-19T01:56:31.121Z,97783
2018-03-19T01:58:59.513Z,97789
2018-03-19T02:01:27.865Z,97783
2018-03-19T02:03:55.441Z,97781
2018-03-19T02:06:23.021Z,97786
2018-03-19T02:08:50.668Z,97786
2018-03-19T02:11:19.069Z,97784
2018-03-19T02:13:46.868Z,97780
2018-03-19T02:16:14.439Z,97775
2018-03-19T02:18:42.044Z,97780
2018-03-19T02:21:10.416Z,97776
2018-03-19T02:23:38.793Z,97762
2018-03-19T02:26:07.136Z,97771
2018-03-19T02:28:34.738Z,97760
2018-03-19T02:31:03.110Z,97756
2018-03-19T02:33:31.498Z,97762
2018-03-19T02:35:59.876Z,97762
2018-03-19T02:38:28.249Z,97762
2018-03-19T02:40:55.913Z,97770
2018-03-19T02:43:23.488Z,97766
2018-03-19T02:45:51.818Z,97768
2018-03-19T02:48:19.434Z,97769
2018-03-19T02:50:47.325Z,97765
2018-03-19T02:53:14.953Z,97765
2018-03-19T02:55:42.618Z,97774
2018-03-19T02:58:10.956Z,97774
2018-03-19T03:00:38.549Z,97772
2018-03-19T03:03:06.114Z,97773
2018-03-19T03:05:34.444Z,97779
2018-03-19T03:08:02.046Z,97779
2018-03-19T03:10:30.438Z,97780
2018-03-19T03:12:58.781Z,97783
2018-03-19T03:15:26.353Z,97789
2018-03-19T03:17:54.755Z,97777
2018-03-19T03:20:23.086Z,97780
2018-03-19T03:22:50.661Z,97775
2018-03-19T03:25:18.255Z,97788
2018-03-19T03:27:47.613Z,97788
2018-03-19T03:30:15.364Z,97779
2018-03-19T03:32:42.982Z,97790
2018-03-19T03:35:11.357Z,97785
2018-03-19T03:37:38.933Z,97792
2018-03-19T03:40:07.271Z,97781
2018-03-19T03:42:34.863Z,97791
2018-03-19T03:45:03.251Z,97792
2018-03-19T03:47:31.621Z,97796
2018-03-19T03:49:59.975Z,97795
2018-03-19T03:52:27.557Z,97796
2018-03-19T03:54:55.127Z,97798
2018-03-19T03:57:23.484Z,97797
2018-03-19T03:59:51.167Z,97794
2018-03-19T04:02:19.570Z,97801
2018-03-19T04:04:47.248Z,97808
2018-03-19T04:07:14.874Z,97795
2018-03-19T04:09:43.218Z,97804
2018-03-19T04:12:10.809Z,97790
2018-03-19T04:14:39.186Z,97805
2018-03-19T04:17:06.851Z,97806
2018-03-19T04:19:34.442Z,97805
2018-03-19T04:22:02.074Z,97798
2018-03-19T04:24:29.746Z,97803
2018-03-19T04:26:58.121Z,97793
2018-03-19T04:29:26.594Z,97798
2018-03-19T04:31:54.169Z,97791
2018-03-19T04:34:22.662Z,97794
2018-03-19T04:36:51.026Z,97802
2018-03-19T04:39:19.406Z,97792
2018-03-19T04:41:47.894Z,97800
2018-03-19T04:44:16.276Z,97800
2018-03-19T04:46:44.639Z,97785
2018-03-19T04:49:12.205Z,97798
2018-03-19T04:51:39.773Z,97801
2018-03-19T04:54:08.116Z,97798
2018-03-19T04:56:35.710Z,97806
2018-03-19T04:59:04.094Z,97805
2018-03-19T05:01:32.465Z,97799
2018-03-19T05:04:00.118Z,97790
2018-03-19T05:06:27.709Z,97800
2018-03-19T05:08:56.095Z,97805
2018-03-19T05:11:23.741Z,97789
2018-03-19T05:13:52.265Z,97796
2018-03-19T05:16:19.845Z,97798
2018-03-19T05:18:47.436Z,97812
2018-03-19T05:21:15.328Z,97803
2018-03-19T05:23:43.046Z,97821
2018-03-19T05:26:10.699Z,97813
2018-03-19T05:28:38.308Z,97824
2018-03-19T05:31:06.661Z,97802
2018-03-19T05:33:34.283Z,97818
2018-03-19T05:36:01.935Z,97817
2018-03-19T05:38:29.557Z,97813
2018-03-19T05:40:57.249Z,97819
2018-03-19T05:43:24.912Z,97821
2018-03-19T05:45:52.499Z,97828
2018-03-19T05:48:20.110Z,97818
2018-03-19T05:50:48.051Z,97830
2018-03-19T05:53:15.838Z,97818
2018-03-19T05:55:43.417Z,97826
2018-03-19T05:58:11.793Z,97832
2018-03-19T06:00:40.131Z,97837
2018-03-19T06:03:07.726Z,97838
2018-03-19T06:05:35.408Z,97832
2018-03-19T06:08:03.062Z,97834
2018-03-19T06:10:34.186Z,97837
2018-03-19T06:13:01.768Z,97832
2018-03-19T06:15:30.100Z,97847
2018-03-19T06:17:57.697Z,97843
2018-03-19T06:20:25.268Z,97852
2018-03-19T06:22:53.619Z,97852
2018-03-19T06:25:21.211Z,97855
2018-03-19T06:27:49.567Z,97856
2018-03-19T06:30:17.329Z,97852
2018-03-19T06:32:44.907Z,97844
2018-03-19T06:35:13.291Z,97849
2018-03-19T06:37:41.635Z,97850
2018-03-19T06:40:09.252Z,97856
2018-03-19T06:42:36.904Z,97857
2018-03-19T06:45:05.273Z,97869
2018-03-19T06:47:33.657Z,97870
2018-03-19T06:50:02.037Z,97865
2018-03-19T06:52:30.371Z,97870
2018-03-19T06:54:57.944Z,97871
2018-03-19T06:57:25.636Z,97881
2018-03-19T06:59:54.027Z,97870
2018-03-19T07:02:21.688Z,97876
2018-03-19T07:04:50.051Z,97878
2018-03-19T07:07:17.723Z,97878
2018-03-19T07:09:46.279Z,97886
2018-03-19T07:12:13.854Z,97874
2018-03-19T07:14:41.538Z,97866
2018-03-19T07:17:09.879Z,97871
2018-03-19T07:19:37.449Z,97875
2018-03-19T07:22:05.124Z,97882
2018-03-19T07:24:32.791Z,97880
2018-03-19T07:27:01.146Z,97876
2018-03-19T07:29:28.738Z,97890
2018-03-19T07:31:57.092Z,97883
2018-03-19T07:34:24.669Z,97881
2018-03-19T07:36:53.050Z,97889
2018-03-19T07:39:21.390Z,97897
2018-03-19T07:41:48.993Z,97893
2018-03-19T07:44:17.365Z,97898
2018-03-19T07:46:44.930Z,97906
2018-03-19T07:49:14.112Z,97893
2018-03-19T07:51:41.683Z,97897
2018-03-19T07:54:09.260Z,97902
2018-03-19T07:56:37.632Z,97902
2018-03-19T07:59:05.975Z,97895
2018-03-19T08:01:33.552Z,97894
2018-03-19T08:04:01.129Z,97903
2018-03-19T08:06:28.785Z,97896
2018-03-19T08:08:56.370Z,97900
2018-03-19T08:11:24.735Z,97896
2018-03-19T08:13:53.112Z,97904
2018-03-19T08:16:20.780Z,97897
2018-03-19T08:18:49.110Z,97901
2018-03-19T08:21:16.943Z,97892
2018-03-19T08:23:44.593Z,97906
2018-03-19T08:26:12.944Z,97896
2018-03-19T08:28:40.532Z,97896
2018-03-19T08:31:08.880Z,97898
2018-03-19T08:33:36.462Z,97898
2018-03-19T08:36:04.144Z,97908
2018-03-19T08:38:32.411Z,97902
2018-03-19T08:41:00.752Z,97902
2018-03-19T08:43:28.331Z,97899
2018-03-19T08:45:56.014Z,97910
2018-03-19T08:48:24.357Z,97901
2018-03-19T08:50:51.933Z,97902
2018-03-19T08:53:19.509Z,97902
2018-03-19T08:55:47.262Z,97906
2018-03-19T08:58:15.852Z,97900
2018-03-19T09:00:43.531Z,97899
2018-03-19T09:03:11.869Z,97895
2018-03-19T09:05:39.459Z,97898
2018-03-19T09:08:07.137Z,97899
2018-03-19T09:10:35.510Z,97896
2018-03-19T09:13:03.902Z,97907
2018-03-19T09:15:32.291Z,97894
2018-03-19T09:17:59.884Z,97887
2018-03-19T09:20:27.485Z,97896
2018-03-19T09:22:55.051Z,97895
2018-03-19T09:25:23.403Z,97901
2018-03-19T09:27:50.988Z,97900
2018-03-19T09:30:19.377Z,97892
2018-03-19T09:32:47.725Z,97881
2018-03-19T09:35:15.793Z,97883
2018-03-19T09:37:43.334Z,97885
2018-03-19T09:40:10.912Z,97889
2018-03-19T09:42:38.514Z,97885
2018-03-19T09:45:06.881Z,97881
2018-03-19T09:47:35.062Z,97891
2018-03-19T09:50:03.395Z,97881
2018-03-19T09:52:31.007Z,97891
2018-03-19T09:54:59.393Z,97882
2018-03-19T09:57:27.762Z,97897
2018-03-19T09:59:56.136Z,97882
2018-03-19T10:02:23.711Z,97889
2018-03-19T10:04:51.299Z,97883
2018-03-19T10:07:18.870Z,97881
2018-03-19T10:09:46.581Z,97881
2018-03-19T10:12:14.256Z,97890
2018-03-19T10:14:42.602Z,97883
2018-03-19T10:17:10.182Z,97881
2018-03-19T10:19:39.343Z,97868
2018-03-19T10:22:07.060Z,97873
2018-03-19T10:24:35.399Z,97872
2018-03-19T10:27:02.974Z,97881
2018-03-19T10:29:30.559Z,97881
2018-03-19T10:31:58.896Z,97871
2018-03-19T10:34:26.474Z,97882
2018-03-19T10:36:54.157Z,97877
2018-03-19T10:39:22.538Z,97867
2018-03-19T10:41:50.925Z,97864
2018-03-19T10:44:19.262Z,97867
2018-03-19T10:46:47.057Z,97870
2018-03-19T10:49:14.737Z,97871
2018-03-19T10:51:43.100Z,97865
2018-03-19T10:54:12.318Z,97861
2018-03-19T10:56:40.648Z,97864
2018-03-19T10:59:08.221Z,97852
2018-03-19T11:01:41.522Z,97861
2018-03-19T11:04:11.072Z,97861
2018-03-19T11:09:46.523Z,97859
2018-03-19T11:12:15.750Z,97862
2018-03-19T11:14:43.369Z,97851
2018-03-19T11:17:10.937Z,97851
2018-03-19T11:19:39.321Z,97859
2018-03-19T11:22:07.697Z,97857
2018-03-19T11:24:36.081Z,97855
2018-03-19T11:27:04.457Z,97852
2018-03-19T11:29:32.837Z,97846
2018-03-19T11:32:01.216Z,97853
2018-03-19T11:34:29.606Z,97859
2018-03-19T11:36:57.978Z,97836
2018-03-19T11:39:26.334Z,97852
2018-03-19T11:41:54.042Z,97845
2018-03-19T11:44:22.379Z,97835
2018-03-19T11:46:50.055Z,97837
2018-03-19T11:49:18.405Z,97834
2018-03-19T11:51:46.173Z,97843
2018-03-19T11:54:13.763Z,97833
2018-03-19T11:56:41.338Z,97837
2018-03-19T11:59:09.705Z,97832
2018-03-19T12:01:38.088Z,97839
2018-03-19T12:04:06.426Z,97852
2018-03-19T12:06:34.008Z,97831
2018-03-19T12:09:01.581Z,97825
2018-03-19T12:11:29.159Z,97829
2018-03-19T12:13:57.494Z,97824
2018-03-19T12:16:25.067Z,97827
2018-03-19T12:18:52.640Z,97825
2018-03-19T12:21:20.326Z,97821
2018-03-19T12:23:48.657Z,97809
2018-03-19T12:26:16.250Z,97813
2018-03-19T12:28:44.633Z,97804
2018-03-19T12:31:12.981Z,97808
2018-03-19T12:33:40.544Z,97811
2018-03-19T12:36:08.128Z,97809
2018-03-19T12:38:35.698Z,97807
2018-03-19T12:41:04.047Z,97814
2018-03-19T12:43:31.629Z,97808
2018-03-19T12:45:59.975Z,97794
2018-03-19T12:48:27.577Z,97796
2018-03-19T12:50:55.931Z,97788
2018-03-19T12:53:24.144Z,97791
2018-03-19T12:55:51.797Z,97793
2018-03-19T12:58:20.133Z,97792
2018-03-19T13:00:47.730Z,97790
2018-03-19T13:03:16.184Z,97799
2018-03-19T13:05:43.795Z,97784
2018-03-19T13:08:11.427Z,97794
2018-03-19T13:10:39.005Z,97797
2018-03-19T13:13:07.385Z,97791
2018-03-19T13:15:35.758Z,97791
2018-03-19T13:18:04.142Z,97794
2018-03-19T13:20:32.531Z,97792
2018-03-19T13:23:00.870Z,97790
2018-03-19T13:25:28.464Z,97785
2018-03-19T13:27:56.928Z,97788
2018-03-19T13:30:24.519Z,97795
2018-03-19T13:32:52.096Z,97797
2018-03-19T13:35:19.723Z,97781
2018-03-19T13:37:48.103Z,97793
2018-03-19T13:40:16.594Z,97787
2018-03-19T13:42:44.948Z,97785
2018-03-19T13:45:12.526Z,97789
2018-03-19T13:47:40.862Z,97791
2018-03-19T13:50:08.436Z,97788
2018-03-19T13:52:36.038Z,97788
2018-03-19T13:55:03.638Z,97795
2018-03-19T13:57:31.368Z,97799
2018-03-19T13:59:59.730Z,97796
2018-03-19T14:02:28.121Z,97795
2018-03-19T14:04:56.474Z,97791
2018-03-19T14:07:24.160Z,97795
2018-03-19T14:09:52.500Z,97791
2018-03-19T14:12:20.087Z,97781
2018-03-19T14:14:48.478Z,97785
2018-03-19T14:17:16.980Z,97785
2018-03-19T14:19:44.624Z,97791
2018-03-19T14:22:12.955Z,97784
2018-03-19T14:24:40.553Z,97788
2018-03-19T14:27:08.130Z,97789
2018-03-19T14:29:36.477Z,97792
2018-03-19T14:32:04.054Z,97785
2018-03-19T14:34:31.623Z,97781
2018-03-19T14:36:59.964Z,97782
2018-03-19T14:39:27.576Z,97775
2018-03-19T14:41:55.140Z,97782
2018-03-19T14:44:23.493Z,97767
2018-03-19T14:46:51.073Z,97768
2018-03-19T14:49:19.409Z,97783
2018-03-19T14:51:47.312Z,97777
2018-03-19T14:54:16.014Z,97769
2018-03-19T14:56:44.377Z,97770
2018-03-19T14:59:12.714Z,97768
2018-03-19T15:01:40.285Z,97775
2018-03-19T15:04:07.874Z,97780
2018-03-19T15:06:35.547Z,97779
2018-03-19T15:09:03.882Z,97775
2018-03-19T15:11:31.484Z,97777
2018-03-19T15:13:59.860Z,97774
2018-03-19T15:16:28.237Z,97779
2018-03-19T15:18:55.816Z,97778
2018-03-19T15:21:24.160Z,97774
2018-03-19T15:23:51.841Z,97773
2018-03-19T15:26:19.505Z,97785
2018-03-19T15:28:47.270Z,97783
2018-03-19T15:31:15.979Z,97783
2018-03-19T15:33:44.300Z,97773
2018-03-19T15:36:11.873Z,97789
2018-03-19T15:38:39.465Z,97778
2018-03-19T15:41:07.810Z,97781
2018-03-19T15:43:35.405Z,97785
2018-03-19T15:46:03.746Z,97788
2018-03-19T15:48:31.313Z,97773
2018-03-19T15:50:58.893Z,97787
2018-03-19T15:53:26.566Z,97785
2018-03-19T15:55:54.945Z,97781
2018-03-19T15:58:23.296Z,97789
2018-03-19T16:00:50.917Z,97799
2018-03-19T16:03:18.549Z,97793
2018-03-19T16:05:47.205Z,97807
2018-03-19T16:08:14.773Z,97803
2018-03-19T16:10:42.429Z,97811
2018-03-19T16:13:10.014Z,97797
2018-03-19T16:15:38.480Z,97805
2018-03-19T16:18:06.058Z,97810
2018-03-19T16:20:34.401Z,97806
2018-03-19T16:23:02.015Z,97809
2018-03-19T16:25:30.352Z,97810
2018-03-19T16:27:58.040Z,97803
2018-03-19T16:30:26.388Z,97814
2018-03-19T16:32:54.150Z,97810
2018-03-19T16:35:21.800Z,97815
2018-03-19T16:37:49.392Z,97821
2018-03-19T16:40:18.127Z,97826
2018-03-19T16:42:46.135Z,97829
2018-03-19T16:45:13.713Z,97829
2018-03-19T16:47:41.288Z,97829
2018-03-19T16:50:08.970Z,97833
2018-03-19T16:52:37.456Z,97843
2018-03-19T16:55:05.109Z,97844
2018-03-19T16:57:33.706Z,97845
2018-03-19T17:00:01.344Z,97849
2018-03-19T17:02:29.728Z,97849
2018-03-19T17:04:58.219Z,97862
2018-03-19T17:07:26.588Z,97858
2018-03-19T17:09:54.946Z,97858
2018-03-19T17:12:22.530Z,97866
2018-03-19T17:14:50.107Z,97862
2018-03-19T17:17:18.443Z,97876
2018-03-19T17:19:46.228Z,97875
2018-03-19T17:22:13.800Z,97884
2018-03-19T17:24:42.142Z,97891
2018-03-19T17:27:11.824Z,97898
2018-03-19T17:29:42.234Z,97896
2018-03-19T17:32:10.021Z,97896
2018-03-19T17:34:37.812Z,97889
2018-03-19T17:37:05.538Z,97917
2018-03-19T17:39:33.196Z,97904
2018-03-19T17:42:00.801Z,97900
2018-03-19T17:44:28.606Z,97914
2018-03-19T17:46:57.092Z,97920
2018-03-19T17:49:25.448Z,97915
2018-03-19T17:51:53.134Z,97909
2018-03-19T17:54:22.614Z,97930
2018-03-19T17:56:50.299Z,97926
2018-03-19T17:59:18.635Z,97937
2018-03-19T18:01:46.235Z,97940
2018-03-19T18:04:13.992Z,97937
2018-03-19T18:06:42.357Z,97957
2018-03-19T18:09:09.956Z,97961
2018-03-19T18:11:38.335Z,97967
2018-03-19T18:15:51.010Z,97975
2018-03-19T18:18:18.600Z,97988
2018-03-19T18:20:46.225Z,97992
2018-03-19T18:23:13.952Z,97988
2018-03-19T18:25:41.605Z,98002
2018-03-19T18:28:09.997Z,98008
2018-03-19T18:30:37.626Z,98003
2018-03-19T18:33:06.453Z,98007
2018-03-19T18:35:34.113Z,98014
2018-03-19T18:38:01.778Z,98013
2018-03-19T18:40:29.387Z,98015
2018-03-19T18:42:57.002Z,98023
2018-03-19T18:45:25.695Z,98024
2018-03-19T18:47:53.381Z,98028
2018-03-19T18:50:22.253Z,98042
2018-03-19T18:52:50.097Z,98036
2018-03-19T18:55:18.471Z,98037
2018-03-19T18:57:47.278Z,98042
2018-03-19T19:00:16.208Z,98042
2018-03-19T19:02:43.843Z,98038
2018-03-19T19:05:13.098Z,98047
2018-03-19T19:07:41.821Z,98045
2018-03-19T19:10:09.455Z,98035
2018-03-19T19:12:37.065Z,98048
2018-03-19T19:15:05.218Z,98047
2018-03-19T19:17:33.071Z,98050
2018-03-19T19:20:01.413Z,98054
2018-03-19T19:22:29.028Z,98045
2018-03-19T19:24:56.897Z,98059
2018-03-19T19:27:24.805Z,98058
2018-03-19T19:29:52.498Z,98059
2018-03-19T19:32:20.917Z,98058
2018-03-19T19:34:49.720Z,98058
2018-03-19T19:37:17.923Z,98058
2018-03-19T19:39:45.536Z,98062
2018-03-19T19:42:14.072Z,98074
2018-03-19T19:44:41.661Z,98069
2018-03-19T19:47:09.247Z,98070
2018-03-19T19:49:36.827Z,98068
2018-03-19T19:52:04.456Z,98068
2018-03-19T19:54:32.805Z,98069
2018-03-19T19:57:00.384Z,98069
2018-03-19T19:59:28.793Z,98069
2018-03-19T20:01:56.946Z,98063
2018-03-19T20:04:25.329Z,98067
2018-03-19T20:06:53.889Z,98078
2018-03-19T20:09:22.260Z,98080
2018-03-19T20:11:49.955Z,98077
2018-03-19T20:14:18.332Z,98077
2018-03-19T20:16:49.806Z,98076
2018-03-19T20:19:18.048Z,98082
2018-03-19T20:21:48.953Z,98083
2018-03-19T20:24:17.501Z,98088
2018-03-19T20:26:45.782Z,98081
2018-03-19T20:29:15.387Z,98095
2018-03-19T20:31:43.973Z,98094
2018-03-19T20:34:11.864Z,98079
2018-03-19T20:36:39.824Z,98097
2018-03-19T20:39:07.859Z,98097
2018-03-19T20:41:35.768Z,98091
2018-03-19T20:44:03.472Z,98088
2018-03-19T20:46:31.388Z,98092
2018-03-19T20:48:59.252Z,98090
2018-03-19T20:51:27.118Z,98087
2018-03-19T20:53:54.984Z,98092
2018-03-19T20:56:22.801Z,98084
2018-03-19T20:58:50.825Z,98091
2018-03-19T21:01:18.694Z,98083
2018-03-19T21:03:46.441Z,98078
2018-03-19T21:06:15.333Z,98076
2018-03-19T21:08:43.256Z,98076
2018-03-19T21:11:11.090Z,98074
2018-03-19T21:13:38.885Z,98082
2018-03-19T21:16:07.685Z,98082
2018-03-19T21:18:35.616Z,98076
2018-03-19T21:21:03.513Z,98079
2018-03-19T21:23:31.960Z,98078
2018-03-19T21:25:59.829Z,98083
2018-03-19T21:28:28.414Z,98079
2018-03-19T21:30:56.178Z,98087
2018-03-19T21:33:24.443Z,98087
2018-03-19T21:35:52.788Z,98077
2018-03-19T21:38:20.382Z,98076
2018-03-19T21:40:48.733Z,98080
2018-03-19T21:43:16.322Z,98080
2018-03-19T21:45:44.662Z,98077
2018-03-19T21:48:12.243Z,98069
2018-03-19T21:50:39.935Z,98076
2018-03-19T21:53:08.268Z,98081
2018-03-19T21:55:35.842Z,98075
2018-03-19T21:58:04.176Z,98068
2018-03-19T22:00:31.756Z,98077
2018-03-19T22:02:59.325Z,98072
2018-03-19T22:05:26.902Z,98068
2018-03-19T22:07:54.481Z,98073
2018-03-19T22:10:22.072Z,98073
2018-03-19T22:12:49.708Z,98069
2018-03-19T22:15:17.374Z,98071
2018-03-19T22:17:45.899Z,98076
2018-03-19T22:20:14.197Z,98077
2018-03-19T22:22:41.777Z,98081
2018-03-19T22:25:10.118Z,98077
2018-03-19T22:27:37.688Z,98076
2018-03-19T22:30:05.261Z,98074
2018-03-19T22:32:32.858Z,98074
2018-03-19T22:35:01.318Z,98072
2018-03-19T22:37:28.892Z,98068
2018-03-19T22:39:56.464Z,98072
2018-03-19T22:42:24.809Z,98073
2018-03-19T22:44:52.377Z,98070
2018-03-19T22:47:19.987Z,98060
2018-03-19T22:49:47.579Z,98068
2018-03-19T22:52:15.336Z,98066
2018-03-19T22:54:42.917Z,98057
2018-03-19T22:57:10.514Z,98074
2018-03-19T22:59:38.888Z,98070
2018-03-19T23:02:06.460Z,98069
2018-03-19T23:04:46.709Z,98065
2018-03-19T23:07:15.049Z,98069
2018-03-19T23:09:43.665Z,98073
2018-03-19T23:12:12.158Z,98068
2018-03-19T23:14:40.500Z,98073
2018-03-19T23:17:08.123Z,98077
2018-03-19T23:19:35.700Z,98068
2018-03-19T23:22:03.272Z,98073
2018-03-19T23:24:30.845Z,98062
2018-03-19T23:26:58.454Z,98063
2018-03-19T23:29:26.914Z,98067
2018-03-19T23:31:54.494Z,98060
2018-03-19T23:34:22.857Z,98068
2018-03-19T23:36:50.524Z,98069
2018-03-19T23:39:18.902Z,98066
2018-03-19T23:41:47.925Z,98071
2018-03-19T23:44:16.964Z,98067
2018-03-19T23:46:44.534Z,98069
2018-03-19T23:49:12.217Z,98074
2018-03-19T23:51:40.578Z,98071
2018-03-19T23:54:08.277Z,98061
2018-03-19T23:56:36.645Z,98069
2018-03-19T23:59:04.992Z,98071
